createdAt,value
2022-11-10T02:34:11.564Z,27.80
2022-11-10T04:22:02.345Z,29.50
2022-11-10T04:24:29.726Z,39.38
2022-11-10T06:03:45.890Z,28.48
2022-11-10T06:09:13.900Z,30.65
2022-11-10T06:11:45.522Z,30.80
2022-11-10T06:14:18.775Z,42.67
2022-11-10T06:50:53.487Z,32.33
2022-11-10T06:58:52.037Z,37.65
2022-11-10T07:07:54.815Z,32.58
2022-11-10T07:10:23.763Z,28.60
2022-11-10T07:35:59.580Z,20.30
2022-11-10T07:38:38.150Z,20.80
2022-11-10T07:41:08.938Z,24.77
2022-11-10T07:43:37.009Z,22.35
2022-11-10T07:46:35.117Z,17.35
2022-11-10T07:49:12.842Z,18.60
2022-11-10T07:51:40.541Z,21.38
2022-11-10T07:54:08.688Z,18.73
2022-11-10T07:56:50.740Z,18.17
2022-11-10T07:59:58.207Z,18.63
2022-11-10T08:02:31.436Z,15.23
2022-11-10T08:04:59.406Z,16.02
2022-11-10T08:07:30.232Z,17.52
2022-11-10T08:10:55.393Z,17.33
2022-11-10T08:13:50.411Z,13.80
2022-11-10T08:26:12.823Z,11.50
2022-11-10T08:28:40.885Z,14.02
2022-11-10T08:31:08.643Z,14.93
2022-11-10T08:33:42.560Z,13.77
2022-11-10T08:36:42.484Z,14.38
2022-11-10T08:39:38.550Z,17.20
2022-11-10T08:42:07.310Z,15.77
2022-11-10T08:44:57.162Z,18.30
2022-11-10T08:47:25.545Z,15.60
2022-11-10T08:53:49.896Z,14.63
2022-11-10T08:56:32.446Z,14.55
2022-11-10T08:59:48.457Z,13.93
2022-11-10T09:02:18.159Z,15.32
2022-11-10T09:04:46.265Z,10.55
2022-11-10T09:07:14.818Z,18.02
2022-11-10T09:09:46.598Z,15.73
2022-11-10T09:12:21.248Z,18.98
2022-11-10T09:14:56.669Z,11.35
2022-11-10T09:17:28.914Z,15.68
2022-11-10T09:19:59.853Z,15.23
2022-11-10T09:23:30.577Z,13.75
2022-11-10T09:28:48.158Z,14.68
2022-11-10T09:41:06.766Z,21.00
2022-11-10T10:08:37.415Z,13.70
2022-11-10T10:11:26.618Z,13.50
2022-11-10T10:14:14.582Z,11.93
2022-11-10T10:17:12.461Z,14.38
2022-11-10T10:20:22.341Z,13.18
2022-11-10T10:23:47.239Z,14.00
2022-11-10T10:26:18.771Z,14.68
2022-11-10T10:28:48.881Z,14.55
2022-11-10T10:31:26.317Z,16.30
2022-11-10T10:33:58.062Z,14.45
2022-11-10T10:36:33.353Z,10.65
2022-11-10T10:39:05.338Z,13.50
2022-11-10T10:41:38.547Z,15.25
2022-11-10T10:44:28.708Z,18.98
2022-11-10T10:55:49.688Z,15.88
2022-11-10T13:50:08.878Z,15.02
2022-11-10T13:53:21.057Z,14.50
2022-11-10T13:56:13.895Z,13.85
2022-11-10T13:58:44.926Z,14.27
2022-11-10T14:01:15.433Z,11.85
2022-11-10T14:03:45.984Z,15.40
2022-11-10T14:06:24.164Z,14.50
2022-11-10T14:08:54.493Z,14.55
2022-11-10T14:11:29.727Z,15.15
2022-11-10T14:14:02.716Z,14.55
2022-11-10T14:16:32.979Z,20.60
2022-11-10T14:19:19.750Z,15.13
2022-11-10T14:21:58.117Z,15.60
2022-11-10T14:24:30.165Z,12.63
2022-11-10T14:27:05.501Z,19.50
2022-11-10T14:29:39.387Z,15.25
2022-11-10T14:32:20.154Z,11.88
2022-11-10T14:34:50.113Z,18.92
2022-11-10T14:37:23.438Z,15.32
2022-11-10T14:39:56.551Z,18.98
2022-11-10T14:42:29.686Z,17.10
2022-11-10T14:45:27.945Z,9.90
2022-11-10T14:48:00.579Z,15.77
2022-11-10T14:50:35.536Z,16.15
2022-11-10T14:53:09.082Z,14.85
2022-11-10T14:55:36.919Z,15.88
2022-11-10T14:58:17.938Z,15.55
2022-11-10T15:00:45.691Z,14.35
2022-11-10T15:03:34.011Z,12.02
2022-11-10T15:06:02.936Z,14.73
2022-11-10T15:08:30.753Z,10.85
2022-11-10T15:10:58.390Z,11.45
2022-11-10T15:13:28.828Z,10.40
2022-11-10T15:16:26.194Z,13.40
2022-11-10T15:18:55.551Z,10.93
2022-11-10T15:21:29.167Z,17.33
2022-11-10T15:24:02.106Z,13.60
2022-11-10T15:26:34.404Z,14.73
2022-11-10T15:29:01.827Z,13.20
2022-11-10T15:31:32.059Z,11.70
2022-11-10T15:34:02.618Z,11.77
2022-11-10T15:36:41.181Z,8.00
2022-11-10T15:39:20.368Z,12.18
2022-11-10T15:41:49.852Z,10.05
2022-11-10T15:44:26.180Z,13.48
2022-11-10T15:46:56.008Z,11.20
2022-11-10T15:49:36.571Z,12.75
2022-11-10T15:52:19.171Z,14.25
2022-11-10T15:54:46.910Z,14.40
2022-11-10T15:57:17.128Z,14.35
2022-11-10T15:59:45.071Z,8.77
2022-11-10T16:02:20.420Z,13.07
2022-11-10T16:04:51.070Z,13.65
2022-11-10T16:07:20.111Z,12.80
2022-11-10T16:09:47.869Z,10.02
2022-11-10T16:12:21.248Z,9.85
2022-11-10T16:14:51.483Z,9.60
2022-11-10T16:17:19.189Z,10.40
2022-11-10T16:19:47.125Z,12.52
2022-11-10T16:22:14.952Z,11.55
2022-11-10T16:24:42.736Z,14.43
2022-11-10T16:27:14.863Z,12.07
2022-11-10T16:29:43.334Z,13.35
2022-11-10T16:32:13.968Z,13.00
2022-11-10T16:34:41.680Z,9.43
2022-11-10T16:37:12.547Z,11.48
2022-11-10T16:39:40.035Z,12.82
2022-11-10T16:42:10.212Z,13.15
2022-11-10T16:44:42.311Z,13.77
2022-11-10T16:47:18.637Z,14.15
2022-11-10T16:49:46.851Z,13.55
2022-11-10T16:52:19.123Z,9.60
2022-11-10T16:54:46.486Z,8.80
2022-11-10T16:57:16.441Z,7.57
2022-11-10T16:59:46.165Z,12.40
2022-11-10T17:02:30.625Z,12.07
2022-11-10T17:04:58.642Z,9.25
2022-11-10T17:07:28.062Z,11.35
2022-11-10T17:10:01.070Z,8.07
2022-11-10T17:12:28.699Z,11.52
2022-11-10T17:14:56.428Z,10.75
2022-11-10T17:17:24.494Z,8.23
2022-11-10T17:19:52.398Z,8.98
2022-11-10T17:22:21.837Z,12.32
2022-11-10T17:24:55.113Z,10.93
2022-11-10T17:27:22.695Z,11.45
2022-11-10T17:29:50.353Z,10.43
2022-11-10T17:32:21.289Z,12.07
2022-11-10T17:34:51.871Z,10.60
2022-11-10T17:37:20.068Z,9.05
2022-11-10T17:39:47.717Z,10.57
2022-11-10T17:42:15.151Z,11.88
2022-11-10T17:44:42.632Z,10.75
2022-11-10T17:47:10.371Z,13.15
2022-11-10T17:49:37.798Z,9.93
2022-11-10T17:52:05.418Z,10.23
2022-11-10T17:54:32.846Z,8.40
2022-11-10T17:57:00.226Z,10.90
2022-11-10T17:59:27.791Z,11.25
2022-11-10T18:01:55.406Z,15.35
2022-11-10T18:04:22.933Z,10.93
2022-11-10T18:06:50.760Z,5.95
2022-11-10T18:09:18.392Z,15.57
2022-11-10T18:11:45.800Z,13.15
2022-11-10T18:14:13.348Z,9.68
2022-11-10T18:16:41.911Z,10.43
2022-11-10T18:19:10.765Z,7.85
2022-11-10T18:21:38.340Z,11.50
2022-11-10T18:24:05.989Z,9.00
2022-11-10T18:26:33.450Z,10.88
2022-11-10T18:29:02.306Z,8.45
2022-11-10T18:31:29.750Z,8.85
2022-11-10T18:33:57.146Z,9.75
2022-11-10T18:36:24.765Z,8.45
2022-11-10T18:38:52.315Z,11.18
2022-11-10T18:41:38.385Z,10.10
2022-11-10T18:44:06.175Z,12.45
2022-11-10T18:46:33.536Z,9.25
2022-11-10T18:49:01.063Z,10.15
2022-11-10T18:51:28.864Z,11.95
2022-11-10T18:53:56.281Z,10.68
2022-11-10T18:56:24.355Z,9.75
2022-11-10T18:58:56.670Z,15.82
2022-11-10T19:01:25.486Z,13.23
2022-11-10T19:03:53.062Z,7.90
2022-11-10T19:06:20.877Z,9.13
2022-11-10T19:08:49.223Z,15.20
2022-11-10T19:11:18.112Z,7.90
2022-11-10T19:13:46.005Z,12.35
2022-11-10T19:16:15.982Z,16.48
2022-11-10T19:18:43.988Z,10.98
2022-11-10T19:21:14.666Z,13.88
2022-11-10T19:23:42.688Z,10.48
2022-11-10T19:26:21.870Z,14.10
2022-11-10T19:28:50.758Z,13.70
2022-11-10T19:31:19.788Z,15.73
2022-11-10T19:33:47.289Z,7.93
2022-11-10T19:36:33.371Z,12.15
2022-11-10T19:39:01.361Z,8.50
2022-11-10T19:41:30.971Z,9.70
2022-11-10T19:44:01.555Z,10.40
2022-11-10T19:46:30.846Z,8.45
2022-11-10T19:48:58.434Z,11.25
2022-11-10T19:51:26.201Z,9.27
2022-11-10T19:54:01.647Z,5.15
2022-11-10T19:56:32.124Z,7.78
2022-11-10T19:59:00.109Z,5.95
2022-11-10T20:01:28.185Z,5.07
2022-11-10T20:03:56.122Z,7.65
2022-11-10T20:06:23.759Z,8.18
2022-11-10T20:08:51.599Z,10.80
2022-11-10T20:11:24.393Z,7.95
2022-11-10T20:13:55.724Z,10.93
2022-11-10T20:16:23.722Z,6.45
2022-11-10T20:18:51.219Z,6.15
2022-11-10T20:21:23.034Z,14.15
2022-11-10T20:23:55.446Z,10.05
2022-11-10T20:26:23.900Z,7.43
2022-11-10T20:28:52.085Z,5.63
2022-11-10T20:31:24.145Z,12.27
2022-11-10T20:33:53.116Z,5.47
2022-11-10T20:36:26.823Z,14.20
2022-11-10T20:38:56.184Z,12.00
2022-11-10T20:41:30.192Z,10.63
2022-11-10T20:43:57.716Z,7.25
2022-11-10T20:46:52.998Z,9.93
2022-11-10T20:49:12.928Z,14.25
2022-11-10T20:51:41.131Z,8.00
2022-11-10T20:54:08.938Z,5.22
2022-11-10T20:56:36.515Z,9.40
2022-11-10T20:59:04.066Z,6.35
2022-11-10T21:01:32.661Z,9.35
2022-11-10T21:04:00.364Z,11.02
2022-11-10T21:06:27.761Z,6.75
2022-11-10T21:08:57.052Z,7.53
2022-11-10T21:11:43.369Z,8.38
2022-11-10T21:14:11.143Z,10.63
2022-11-10T21:16:38.628Z,8.02
2022-11-10T21:19:06.504Z,9.00
2022-11-10T21:21:34.804Z,6.25
2022-11-10T21:24:06.381Z,10.10
2022-11-10T21:26:35.889Z,9.65
2022-11-10T21:29:04.126Z,8.70
2022-11-10T21:31:31.753Z,9.75
2022-11-10T21:33:59.695Z,11.82
2022-11-10T21:36:32.160Z,6.65
2022-11-10T21:38:59.847Z,6.25
2022-11-10T21:41:28.375Z,3.88
2022-11-10T21:43:55.865Z,9.63
2022-11-10T21:46:23.419Z,6.05
2022-11-10T21:48:51.644Z,4.97
2022-11-10T21:51:21.374Z,7.80
2022-11-10T21:53:48.921Z,8.05
2022-11-10T21:56:16.599Z,8.68
2022-11-10T21:58:43.999Z,9.45
2022-11-10T22:01:14.210Z,7.85
2022-11-10T22:03:42.013Z,6.65
2022-11-10T22:06:12.201Z,9.35
2022-11-10T22:08:40.734Z,9.77
2022-11-10T22:11:38.240Z,6.65
2022-11-10T22:14:31.848Z,9.70
2022-11-10T22:17:18.915Z,7.22
2022-11-10T22:19:46.362Z,6.78
2022-11-10T22:22:16.759Z,11.13
2022-11-10T22:24:44.186Z,8.50
2022-11-10T22:27:11.746Z,8.40
2022-11-10T22:29:39.313Z,10.18
2022-11-10T22:32:06.738Z,10.30
2022-11-10T22:34:34.171Z,11.32
2022-11-10T22:37:01.815Z,12.93
2022-11-10T22:39:49.333Z,10.50
2022-11-10T22:42:43.135Z,10.90
2022-11-10T22:45:11.016Z,6.63
2022-11-10T22:47:57.196Z,10.43
2022-11-10T22:50:24.633Z,9.98
2022-11-10T22:52:52.244Z,9.07
2022-11-10T22:55:19.896Z,17.00
2022-11-10T22:57:47.335Z,14.80
2022-11-10T23:00:15.817Z,8.43
2022-11-10T23:02:43.590Z,13.68
2022-11-10T23:05:11.410Z,9.95
2022-11-10T23:07:38.905Z,14.93
2022-11-10T23:10:06.854Z,11.18
2022-11-10T23:12:34.439Z,13.15
2022-11-10T23:15:01.938Z,11.20
2022-11-10T23:17:29.356Z,6.93
2022-11-10T23:19:56.811Z,11.52
2022-11-10T23:22:24.354Z,15.43
2022-11-10T23:24:56.956Z,7.78
2022-11-10T23:27:24.996Z,11.57
2022-11-10T23:29:52.539Z,11.40
2022-11-10T23:35:05.070Z,14.43
2022-11-10T23:37:32.617Z,11.98
2022-11-10T23:40:00.119Z,17.30
2022-11-10T23:42:28.846Z,16.45
2022-11-10T23:44:58.756Z,14.13
2022-11-10T23:47:26.106Z,18.50
2022-11-10T23:49:53.538Z,9.70
2022-11-10T23:52:21.199Z,15.05
2022-11-10T23:54:49.199Z,14.68
2022-11-10T23:57:16.827Z,14.95
2022-11-10T23:59:44.240Z,13.45
